Nina Victory — LANG7 — position and weather

sailwx.info

Track history (hours):
 
Tides and Currents Weather Stations Pressure Air Temp Water Temp Dewpoint Dewpoint Depression Visibility Wind Speed Wind Dir Waves Ship Positions

Nina Victory

Last reported at 2018-Jun-18 11:49 UTC. Time now 2018-Jun-20 20:50 UTC.
Position N 37°55' W 122°27'.

Length 181 m; draft 11 m.

Type: Tanker. MMSI: 257005000.

Date/timePositionNaut miles runAvg speedWind from/ knotsBaromVisibWave heightAir tempDewpointWater temp
2018-Jun-18 11:49N 37°55' W 122°27'311.2
2018-Jun-18 11:30N 37°52' W 122°25'5 9.5
2018-Jun-18 11:01N 37°49' W 122°29'611.8
2018-Jun-18 10:31N 37°46' W 122°36'11 4.7
2018-Jun-18 08:09N 37°36' W 122°40'1 4.8
2018-Jun-18 07:59N 37°35' W 122°40'3 5.5
2018-Jun-18 07:30N 37°32' W 122°40'4 7.9
2018-Jun-18 06:59N 37°28' W 122°40'4 8.7
2018-Jun-18 06:30N 37°24' W 122°40'4 8.5
2018-Jun-18 05:59N 37°19' W 122°40'15610.5
2018-Jun-17 15:01N 34°57' W 121°19'511.4
2018-Jun-17 14:35N 34°53' W 121°16'111.5
2018-Jun-17 14:31N 34°52' W 121°15'2011.5
2018-Jun-17 12:45N 34°36' W 121°00'311.6
2018-Jun-17 12:31N 34°34' W 120°58'611.6
2018-Jun-17 12:00N 34°29' W 120°54'510.8
2018-Jun-17 11:30N 34°26' W 120°49'611.6
2018-Jun-17 11:01N 34°24' W 120°43'612.2
2018-Jun-17 10:31N 34°23' W 120°35'712.9
2018-Jun-17 10:00N 34°21' W 120°28'612.8
2018-Jun-17 09:31N 34°19' W 120°20'612.6
2018-Jun-17 09:00N 34°17' W 120°13'712.2
2018-Jun-17 08:28N 34°16' W 120°05'612.9
2018-Jun-17 08:00N 34°14' W 119°58'712.8
2018-Jun-17 07:29N 34°12' W 119°51'612.4
2018-Jun-17 06:58N 34°11' W 119°43'612.7
2018-Jun-17 06:30N 34°09' W 119°36'712.8
2018-Jun-17 05:57N 34°07' W 119°28'613.0
2018-Jun-17 05:30N 34°06' W 119°21'611.3
2018-Jun-17 05:00N 34°07' W 119°15'3 5.5
2018-Jun-17 04:30N 34°09' W 119°12'0 0.2
2018-Jun-17 03:51N 34°09' W 119°12'0 0.0
2018-Jun-17 03:24N 34°09' W 119°12'0 0.0
2018-Jun-16 16:27N 34°09' W 119°12'2 3.5
2018-Jun-16 16:00N 34°08' W 119°14'1 2.6
2018-Jun-16 15:30N 34°07' W 119°13'0 0.0
2018-Jun-16 14:56N 34°07' W 119°13'0 0.0
2018-Jun-16 14:23N 34°07' W 119°13'0 0.0
2018-Jun-16 12:26N 34°07' W 119°13'0 0.2
2018-Jun-16 11:23N 34°07' W 119°13'1 1.3
2018-Jun-16 10:59N 34°07' W 119°13'2 3.7
2018-Jun-16 10:28N 34°09' W 119°12'0 0.0
2018-Jun-15 17:42N 34°09' W 119°12'1 4.0
2018-Jun-15 17:21N 34°08' W 119°13'1 3.3
2018-Jun-15 16:59N 34°07' W 119°14'1 0.1
2018-Jun-15 00:44N 34°07' W 119°12'0 0.0
2018-Jun-15 00:26N 34°07' W 119°12'0 0.0
2018-Jun-14 19:20N 34°07' W 119°12'0 0.1
2018-Jun-14 18:59N 34°07' W 119°12'0 0.1
2018-Jun-14 18:29N 34°07' W 119°13'0 0.1
2018-Jun-14 17:59N 34°07' W 119°13'0 0.1
2018-Jun-14 17:29N 34°07' W 119°13'0 0.1
2018-Jun-14 16:59N 34°07' W 119°12'0 0.1
2018-Jun-14 16:23N 34°07' W 119°12'0 0.0
2018-Jun-14 15:59N 34°07' W 119°12'0 0.1
2018-Jun-14 15:29N 34°07' W 119°12'0 0.1
2018-Jun-14 14:50N 34°07' W 119°12'0 0.2
2018-Jun-14 14:05N 34°07' W 119°13'0 0.1
2018-Jun-14 14:00N 34°07' W 119°13'2 4.0
2018-Jun-14 13:30N 34°05' W 119°14'2 4.8
2018-Jun-14 13:00N 34°03' W 119°12'3 5.8
2018-Jun-14 12:30N 34°02' W 119°09'3 6.3
2018-Jun-14 12:00N 34°00' W 119°06'5 8.9
2018-Jun-14 11:30N 33°58' W 119°01'610.9
2018-Jun-14 10:55N 33°55' W 118°54'511.4
2018-Jun-14 10:30N 33°52' W 118°50'611.3
2018-Jun-14 10:00N 33°49' W 118°44'611.4
2018-Jun-14 09:30N 33°46' W 118°38'1610.9
2018-Jun-14 08:03N 33°39' W 118°21'011.0
2018-Jun-14 08:00N 33°38' W 118°21'510.9
2018-Jun-14 07:30N 33°37' W 118°14'510.3
2018-Jun-14 07:00N 33°34' W 118°09'2411.7
2018-Jun-14 04:56N 33°12' W 117°58'511.7
2018-Jun-14 04:30N 33°07' W 117°56'611.6
2018-Jun-14 04:00N 33°02' W 117°53'611.9
2018-Jun-14 03:30N 32°57' W 117°50'712.0
2018-Jun-14 02:58N 32°51' W 117°47'511.6
2018-Jun-14 02:31N 32°46' W 117°44'1011.9
2018-Jun-14 01:41N 32°37' W 117°39'212.1
2018-Jun-14 01:30N 32°35' W 117°38'611.7
2018-Jun-14 01:01N 32°29' W 117°37'6511.1
2018-Jun-13 19:13N 31°26' W 117°20'1012.5
2018-Jun-13 18:25N 31°17' W 117°16'512.8
2018-Jun-13 18:00N 31°12' W 117°14'1012.6
2018-Jun-13 17:10N 31°02' W 117°10'  
Track history (hours):
 
Tides and Currents Weather Stations Pressure Air Temp Water Temp Dewpoint Dewpoint Depression Visibility Wind Speed Wind Dir Waves Ship Positions

Nina Victory

Last reported at 2018-Jun-18 11:49 UTC. Time now 2018-Jun-20 20:50 UTC.
Position N 37°55' W 122°27'.

Length 181 m; draft 11 m.

Type: Tanker. MMSI: 257005000.

Date/timePositionNaut miles runAvg speedWind from/ knotsBaromVisibWave heightAir tempDewpointWater temp
2018-Jun-18 11:49N 37°55' W 122°27'311.2
2018-Jun-18 11:30N 37°52' W 122°25'5 9.5
2018-Jun-18 11:01N 37°49' W 122°29'611.8
2018-Jun-18 10:31N 37°46' W 122°36'11 4.7
2018-Jun-18 08:09N 37°36' W 122°40'1 4.8
2018-Jun-18 07:59N 37°35' W 122°40'3 5.5
2018-Jun-18 07:30N 37°32' W 122°40'4 7.9
2018-Jun-18 06:59N 37°28' W 122°40'4 8.7
2018-Jun-18 06:30N 37°24' W 122°40'4 8.5
2018-Jun-18 05:59N 37°19' W 122°40'15610.5
2018-Jun-17 15:01N 34°57' W 121°19'511.4
2018-Jun-17 14:35N 34°53' W 121°16'111.5
2018-Jun-17 14:31N 34°52' W 121°15'2011.5
2018-Jun-17 12:45N 34°36' W 121°00'311.6
2018-Jun-17 12:31N 34°34' W 120°58'611.6
2018-Jun-17 12:00N 34°29' W 120°54'510.8
2018-Jun-17 11:30N 34°26' W 120°49'611.6
2018-Jun-17 11:01N 34°24' W 120°43'612.2
2018-Jun-17 10:31N 34°23' W 120°35'712.9
2018-Jun-17 10:00N 34°21' W 120°28'612.8
2018-Jun-17 09:31N 34°19' W 120°20'612.6
2018-Jun-17 09:00N 34°17' W 120°13'712.2
2018-Jun-17 08:28N 34°16' W 120°05'612.9
2018-Jun-17 08:00N 34°14' W 119°58'712.8
2018-Jun-17 07:29N 34°12' W 119°51'612.4
2018-Jun-17 06:58N 34°11' W 119°43'612.7
2018-Jun-17 06:30N 34°09' W 119°36'712.8
2018-Jun-17 05:57N 34°07' W 119°28'613.0
2018-Jun-17 05:30N 34°06' W 119°21'611.3
2018-Jun-17 05:00N 34°07' W 119°15'3 5.5
2018-Jun-17 04:30N 34°09' W 119°12'0 0.2
2018-Jun-17 03:51N 34°09' W 119°12'0 0.0
2018-Jun-17 03:24N 34°09' W 119°12'0 0.0
2018-Jun-16 16:27N 34°09' W 119°12'2 3.5
2018-Jun-16 16:00N 34°08' W 119°14'1 2.6
2018-Jun-16 15:30N 34°07' W 119°13'0 0.0
2018-Jun-16 14:56N 34°07' W 119°13'0 0.0
2018-Jun-16 14:23N 34°07' W 119°13'0 0.0
2018-Jun-16 12:26N 34°07' W 119°13'0 0.2
2018-Jun-16 11:23N 34°07' W 119°13'1 1.3
2018-Jun-16 10:59N 34°07' W 119°13'2 3.7
2018-Jun-16 10:28N 34°09' W 119°12'0 0.0
2018-Jun-15 17:42N 34°09' W 119°12'1 4.0
2018-Jun-15 17:21N 34°08' W 119°13'1 3.3
2018-Jun-15 16:59N 34°07' W 119°14'1 0.1
2018-Jun-15 00:44N 34°07' W 119°12'0 0.0
2018-Jun-15 00:26N 34°07' W 119°12'0 0.0
2018-Jun-14 19:20N 34°07' W 119°12'0 0.1
2018-Jun-14 18:59N 34°07' W 119°12'0 0.1
2018-Jun-14 18:29N 34°07' W 119°13'0 0.1
2018-Jun-14 17:59N 34°07' W 119°13'0 0.1
2018-Jun-14 17:29N 34°07' W 119°13'0 0.1
2018-Jun-14 16:59N 34°07' W 119°12'0 0.1
2018-Jun-14 16:23N 34°07' W 119°12'0 0.0
2018-Jun-14 15:59N 34°07' W 119°12'0 0.1
2018-Jun-14 15:29N 34°07' W 119°12'0 0.1
2018-Jun-14 14:50N 34°07' W 119°12'0 0.2
2018-Jun-14 14:05N 34°07' W 119°13'0 0.1
2018-Jun-14 14:00N 34°07' W 119°13'2 4.0
2018-Jun-14 13:30N 34°05' W 119°14'2 4.8
2018-Jun-14 13:00N 34°03' W 119°12'3 5.8
2018-Jun-14 12:30N 34°02' W 119°09'3 6.3
2018-Jun-14 12:00N 34°00' W 119°06'5 8.9
2018-Jun-14 11:30N 33°58' W 119°01'610.9
2018-Jun-14 10:55N 33°55' W 118°54'511.4
2018-Jun-14 10:30N 33°52' W 118°50'611.3
2018-Jun-14 10:00N 33°49' W 118°44'611.4
2018-Jun-14 09:30N 33°46' W 118°38'1610.9
2018-Jun-14 08:03N 33°39' W 118°21'011.0
2018-Jun-14 08:00N 33°38' W 118°21'510.9
2018-Jun-14 07:30N 33°37' W 118°14'510.3
2018-Jun-14 07:00N 33°34' W 118°09'2411.7
2018-Jun-14 04:56N 33°12' W 117°58'511.7
2018-Jun-14 04:30N 33°07' W 117°56'611.6
2018-Jun-14 04:00N 33°02' W 117°53'611.9
2018-Jun-14 03:30N 32°57' W 117°50'712.0
2018-Jun-14 02:58N 32°51' W 117°47'511.6
2018-Jun-14 02:31N 32°46' W 117°44'1011.9
2018-Jun-14 01:41N 32°37' W 117°39'212.1
2018-Jun-14 01:30N 32°35' W 117°38'611.7
2018-Jun-14 01:01N 32°29' W 117°37'6511.1
2018-Jun-13 19:13N 31°26' W 117°20'1012.5
2018-Jun-13 18:25N 31°17' W 117°16'512.8
2018-Jun-13 18:00N 31°12' W 117°14'1012.6
2018-Jun-13 17:10N 31°02' W 117°10'  

Dump ship's entire track history